createdAt,value
2022-08-17T00:00:05.702Z,5.56
2022-08-17T00:02:58.516Z,5.73
2022-08-17T00:05:28.558Z,5.32
2022-08-17T00:07:56.400Z,5.67
2022-08-17T00:10:24.208Z,5.46
2022-08-17T00:12:52.269Z,5.34
2022-08-17T00:15:22.654Z,5.45
2022-08-17T00:17:51.264Z,5.62
2022-08-17T00:20:19.082Z,6.08
2022-08-17T00:23:01.602Z,5.43
2022-08-17T00:25:29.261Z,5.37
2022-08-17T00:27:57.000Z,5.42
2022-08-17T00:30:26.240Z,5.35
2022-08-17T00:33:15.195Z,5.32
2022-08-17T00:35:42.555Z,5.37
2022-08-17T00:38:10.287Z,5.43
2022-08-17T00:40:44.645Z,5.67
2022-08-17T00:43:25.926Z,5.28
2022-08-17T00:45:54.632Z,5.71
2022-08-17T00:48:29.317Z,5.32
2022-08-17T00:51:02.356Z,5.53
2022-08-17T00:53:32.443Z,5.19
2022-08-17T00:56:02.677Z,5.21
2022-08-17T00:58:36.174Z,5.53
2022-08-17T01:01:06.846Z,5.34
2022-08-17T01:03:35.934Z,5.22
2022-08-17T01:06:06.327Z,5.14
2022-08-17T01:08:36.338Z,5.90
2022-08-17T01:11:05.452Z,5.49
2022-08-17T01:13:40.805Z,5.60
2022-08-17T01:16:28.352Z,5.33
2022-08-17T01:18:59.273Z,5.43
2022-08-17T01:21:42.634Z,5.61
2022-08-17T01:24:10.341Z,5.50
2022-08-17T01:26:40.265Z,5.70
2022-08-17T01:29:08.201Z,5.64
2022-08-17T01:31:38.841Z,5.73
2022-08-17T01:34:09.115Z,6.00
2022-08-17T01:36:37.659Z,5.64
2022-08-17T01:39:07.374Z,5.67
2022-08-17T01:41:38.100Z,5.46
2022-08-17T01:44:06.725Z,5.58
2022-08-17T01:46:36.541Z,5.76
2022-08-17T01:49:10.262Z,5.75
2022-08-17T01:51:38.013Z,5.60
2022-08-17T01:54:08.943Z,5.89
2022-08-17T01:56:39.033Z,5.77
2022-08-17T01:59:06.618Z,5.74
2022-08-17T02:01:35.123Z,5.71
2022-08-17T02:04:03.681Z,5.81
2022-08-17T02:06:44.950Z,5.91
2022-08-17T02:09:17.020Z,5.78
2022-08-17T02:11:45.370Z,6.08
2022-08-17T02:14:14.316Z,5.76
2022-08-17T02:16:42.422Z,5.85
2022-08-17T02:19:12.968Z,5.46
2022-08-17T02:21:43.014Z,5.87
2022-08-17T02:24:15.480Z,5.72
2022-08-17T02:26:43.225Z,5.84
2022-08-17T02:29:10.777Z,5.65
2022-08-17T02:31:38.386Z,5.97
2022-08-17T02:34:06.290Z,5.70
2022-08-17T02:36:34.720Z,6.29
2022-08-17T02:39:04.415Z,5.74
2022-08-17T02:41:32.574Z,5.95
2022-08-17T02:44:01.165Z,6.01
2022-08-17T02:46:28.783Z,5.82
2022-08-17T02:48:56.609Z,5.69
2022-08-17T02:51:24.462Z,5.82
2022-08-17T02:53:52.093Z,5.84
2022-08-17T02:56:19.670Z,5.63
2022-08-17T02:58:47.393Z,5.70
2022-08-17T03:01:15.128Z,5.62
2022-08-17T03:03:42.990Z,5.82
2022-08-17T03:06:10.776Z,5.45
2022-08-17T03:08:38.425Z,6.02
2022-08-17T03:11:06.109Z,5.67
2022-08-17T03:13:34.077Z,5.95
2022-08-17T03:16:01.770Z,7.20
2022-08-17T03:18:29.532Z,7.34
2022-08-17T03:21:00.541Z,6.87
2022-08-17T03:23:29.653Z,5.95
2022-08-17T03:25:58.200Z,6.33
2022-08-17T03:28:26.374Z,6.48
2022-08-17T03:30:54.339Z,7.56
2022-08-17T03:33:22.091Z,8.94
2022-08-17T03:35:50.125Z,9.77
2022-08-17T03:38:18.629Z,6.91
2022-08-17T03:40:58.809Z,6.41
2022-08-17T03:43:30.028Z,6.17
2022-08-17T03:46:28.159Z,6.42
2022-08-17T03:49:23.505Z,6.11
2022-08-17T03:52:10.193Z,6.15
2022-08-17T03:54:56.433Z,6.67
2022-08-17T03:57:24.745Z,6.52
2022-08-17T03:59:52.834Z,6.62
2022-08-17T04:02:31.536Z,6.80
2022-08-17T04:04:59.628Z,6.50
2022-08-17T04:07:28.923Z,6.54
2022-08-17T04:09:58.201Z,6.55
2022-08-17T04:12:30.729Z,6.36
2022-08-17T04:14:58.665Z,6.55
2022-08-17T04:17:28.194Z,6.47
2022-08-17T04:19:56.398Z,6.53
2022-08-17T04:22:32.183Z,6.88
2022-08-17T04:25:08.099Z,6.53
2022-08-17T04:27:36.488Z,6.65
2022-08-17T04:30:07.303Z,6.78
2022-08-17T04:33:03.552Z,6.75
2022-08-17T04:35:45.891Z,6.88
2022-08-17T04:38:15.076Z,7.03
2022-08-17T04:41:02.008Z,6.91
2022-08-17T04:43:32.070Z,7.01
2022-08-17T04:46:08.321Z,7.46
2022-08-17T04:48:38.931Z,7.35
2022-08-17T04:51:10.458Z,7.26
2022-08-17T04:53:40.136Z,7.43
2022-08-17T04:56:16.132Z,7.06
2022-08-17T04:58:50.177Z,7.15
2022-08-17T05:01:23.457Z,7.95
2022-08-17T05:03:53.633Z,7.45
2022-08-17T05:06:21.613Z,8.92
2022-08-17T05:08:49.613Z,8.10
2022-08-17T05:11:17.232Z,7.95
2022-08-17T05:13:45.068Z,7.70
2022-08-17T05:16:12.960Z,7.90
2022-08-17T05:18:40.610Z,9.04
2022-08-17T05:21:08.429Z,9.13
2022-08-17T05:23:42.055Z,8.63
2022-08-17T05:26:26.401Z,9.00
2022-08-17T05:29:00.354Z,8.58
2022-08-17T05:31:31.057Z,8.37
2022-08-17T05:33:58.764Z,8.22
2022-08-17T05:36:41.882Z,8.32
2022-08-17T05:39:16.694Z,8.94
2022-08-17T05:41:47.089Z,8.12
2022-08-17T05:44:15.405Z,8.41
2022-08-17T05:46:48.060Z,8.74
2022-08-17T05:49:18.665Z,8.86
2022-08-17T05:51:52.292Z,8.48
2022-08-17T05:54:29.580Z,8.96
2022-08-17T05:57:26.862Z,9.16
2022-08-17T06:00:00.548Z,8.80
2022-08-17T06:02:34.077Z,11.03
2022-08-17T06:05:07.671Z,11.97
2022-08-17T06:07:41.182Z,11.78
2022-08-17T06:10:14.741Z,13.85
2022-08-17T06:12:48.319Z,14.72
2022-08-17T06:15:34.724Z,14.90
2022-08-17T06:18:05.558Z,15.91
2022-08-17T06:20:43.930Z,15.69
2022-08-17T06:23:15.364Z,14.78
2022-08-17T06:25:48.028Z,15.28
2022-08-17T06:28:24.329Z,15.48
2022-08-17T06:31:00.811Z,15.19
2022-08-17T06:33:32.237Z,14.60
2022-08-17T06:36:09.572Z,14.08
2022-08-17T06:38:38.777Z,15.29
2022-08-17T06:41:37.814Z,16.66
2022-08-17T06:44:43.356Z,17.40
2022-08-17T06:47:28.356Z,19.94
2022-08-17T06:50:15.431Z,18.55
2022-08-17T06:53:02.074Z,17.02
2022-08-17T06:55:38.085Z,18.55
2022-08-17T06:58:16.102Z,22.23
2022-08-17T07:00:47.359Z,25.23
2022-08-17T07:03:29.940Z,24.99
2022-08-17T07:06:00.932Z,24.75
2022-08-17T07:08:44.010Z,25.61
2022-08-17T07:11:15.070Z,24.29
2022-08-17T07:13:51.071Z,27.68
2022-08-17T07:16:25.881Z,24.02
2022-08-17T07:18:56.233Z,22.29
2022-08-17T07:21:50.206Z,28.58
2022-08-17T07:24:30.677Z,24.33
2022-08-17T07:27:13.351Z,20.26
2022-08-17T07:29:56.676Z,20.78
2022-08-17T07:32:31.824Z,21.92
2022-08-17T07:35:11.579Z,24.34
2022-08-17T07:37:41.061Z,22.47
2022-08-17T07:40:20.696Z,20.94
2022-08-17T07:43:06.857Z,35.81
2022-08-17T07:45:54.522Z,23.20
2022-08-17T07:48:24.531Z,19.29
2022-08-17T07:50:55.041Z,16.54
2022-08-17T07:53:24.623Z,14.07
2022-08-17T07:55:54.037Z,13.41
2022-08-17T07:58:23.860Z,11.48
2022-08-17T08:01:14.707Z,11.55
2022-08-17T08:03:44.288Z,9.24
2022-08-17T08:06:25.029Z,9.94
2022-08-17T08:08:55.126Z,9.75
2022-08-17T08:11:31.390Z,10.02
2022-08-17T08:14:18.989Z,10.55
2022-08-17T08:17:00.768Z,9.56
2022-08-17T08:19:30.216Z,9.08
2022-08-17T08:22:11.113Z,8.61
2022-08-17T08:24:38.896Z,7.78
2022-08-17T08:27:12.509Z,7.96
2022-08-17T08:29:52.808Z,8.11
2022-08-17T08:32:33.207Z,8.39
2022-08-17T08:35:09.227Z,9.18
2022-08-17T08:37:49.966Z,10.50
2022-08-17T08:40:36.597Z,10.13
2022-08-17T08:43:16.498Z,9.50
2022-08-17T08:46:10.567Z,7.30
2022-08-17T08:48:56.797Z,6.95
2022-08-17T08:51:46.983Z,7.06
2022-08-17T08:54:27.041Z,6.64
2022-08-17T08:57:23.920Z,6.87
2022-08-17T09:00:09.367Z,6.22
2022-08-17T09:02:55.075Z,5.87
2022-08-17T09:05:37.942Z,5.70
2022-08-17T09:08:05.540Z,6.19
2022-08-17T09:10:39.985Z,5.85
2022-08-17T09:13:10.195Z,6.31
2022-08-17T09:15:42.345Z,6.30
2022-08-17T09:19:01.563Z,6.11
2022-08-17T09:21:21.522Z,5.92
2022-08-17T09:23:59.351Z,5.97
2022-08-17T09:26:31.445Z,6.11
2022-08-17T09:29:03.327Z,5.90
2022-08-17T09:31:46.494Z,5.84
2022-08-17T09:34:19.304Z,5.57
2022-08-17T09:37:02.522Z,5.15
2022-08-17T09:39:30.154Z,5.47
2022-08-17T09:42:14.376Z,4.83
2022-08-17T09:45:10.213Z,4.88
2022-08-17T09:47:45.496Z,4.91
2022-08-17T09:51:04.882Z,5.51
2022-08-17T09:53:09.665Z,5.10
2022-08-17T09:55:37.223Z,4.77
2022-08-17T09:58:17.046Z,4.77
2022-08-17T10:00:53.716Z,4.98
2022-08-17T10:03:39.033Z,5.52
2022-08-17T10:06:22.024Z,5.62
2022-08-17T10:08:55.912Z,4.97
2022-08-17T10:12:00.949Z,4.31
2022-08-17T10:14:44.534Z,8.88
2022-08-17T10:17:29.770Z,9.73
2022-08-17T10:19:57.335Z,14.30
2022-08-17T10:23:01.693Z,5.43
2022-08-17T10:26:02.619Z,4.04
2022-08-17T10:28:40.555Z,4.20
2022-08-17T10:31:33.892Z,4.64
2022-08-17T10:34:24.456Z,4.44
2022-08-17T10:37:00.695Z,4.75
2022-08-17T10:39:52.139Z,4.69
2022-08-17T10:42:39.105Z,5.26
2022-08-17T10:45:45.037Z,5.05
2022-08-17T10:48:17.411Z,5.08
2022-08-17T10:50:49.398Z,5.15
2022-08-17T10:53:28.929Z,4.84
2022-08-17T10:56:11.735Z,4.58
2022-08-17T10:58:49.388Z,4.00
2022-08-17T11:01:17.885Z,5.43
2022-08-17T11:03:55.066Z,5.77
2022-08-17T11:06:41.917Z,5.94
2022-08-17T11:09:19.845Z,6.74
2022-08-17T11:11:59.762Z,5.52
2022-08-17T11:14:39.180Z,17.02
2022-08-17T11:17:13.099Z,13.02
2022-08-17T11:19:42.145Z,11.30
2022-08-17T11:22:12.889Z,4.59
2022-08-17T11:24:47.989Z,4.55
2022-08-17T11:27:18.561Z,4.68
2022-08-17T11:29:54.208Z,3.87
2022-08-17T11:32:32.139Z,4.34
2022-08-17T11:35:18.536Z,4.49
2022-08-17T11:37:52.232Z,4.29
2022-08-17T11:40:28.823Z,4.18
2022-08-17T11:43:03.425Z,4.52
2022-08-17T11:45:32.280Z,4.36
2022-08-17T11:48:28.963Z,4.55
2022-08-17T11:51:29.258Z,4.68
2022-08-17T11:54:21.494Z,4.64
2022-08-17T11:56:49.860Z,5.05
2022-08-17T11:59:45.977Z,4.53
2022-08-17T12:02:31.501Z,4.56
2022-08-17T12:05:14.561Z,5.03
2022-08-17T12:07:45.214Z,5.45
2022-08-17T12:10:16.086Z,5.03
2022-08-17T12:12:47.792Z,5.31
2022-08-17T12:15:25.590Z,4.38
2022-08-17T12:17:55.274Z,3.89
2022-08-17T12:20:37.370Z,3.83
2022-08-17T12:23:16.230Z,4.03
2022-08-17T12:25:57.946Z,4.15
2022-08-17T12:28:30.911Z,4.18
2022-08-17T12:31:02.312Z,4.33
2022-08-17T12:33:30.074Z,4.60
2022-08-17T12:36:03.084Z,5.73
2022-08-17T12:38:34.677Z,4.81
2022-08-17T12:41:22.977Z,5.00
2022-08-17T12:43:58.644Z,4.23
2022-08-17T12:46:26.272Z,4.38
2022-08-17T12:48:59.208Z,4.99
2022-08-17T12:51:29.173Z,8.22
2022-08-17T12:53:57.389Z,5.66
2022-08-17T12:56:25.103Z,6.66
2022-08-17T12:58:56.583Z,5.53
2022-08-17T13:01:25.194Z,8.30
2022-08-17T13:03:57.229Z,6.37
2022-08-17T13:06:34.112Z,5.78
2022-08-17T13:09:09.903Z,6.37
2022-08-17T13:11:46.593Z,8.38
2022-08-17T13:14:15.346Z,5.11
2022-08-17T13:16:47.887Z,5.63
2022-08-17T13:19:16.912Z,4.76
2022-08-17T13:21:50.479Z,5.43
2022-08-17T13:24:21.162Z,16.79
2022-08-17T13:26:57.129Z,11.43
2022-08-17T13:29:28.342Z,15.57
2022-08-17T13:32:12.906Z,4.52
2022-08-17T13:35:13.175Z,4.37
2022-08-17T13:37:35.870Z,5.50
2022-08-17T13:40:07.621Z,4.03
2022-08-17T13:42:50.333Z,4.11
2022-08-17T13:45:35.711Z,6.47
2022-08-17T13:48:16.740Z,4.00
2022-08-17T13:50:49.351Z,5.62
2022-08-17T13:53:23.553Z,6.05
2022-08-17T13:55:56.613Z,4.53
2022-08-17T13:58:27.304Z,4.49
2022-08-17T14:00:56.306Z,4.55
2022-08-17T14:03:24.744Z,4.54
2022-08-17T14:05:53.413Z,4.53
2022-08-17T14:08:21.166Z,5.66
2022-08-17T14:10:57.834Z,4.91
2022-08-17T14:13:25.478Z,5.96
2022-08-17T14:15:56.153Z,6.05
2022-08-17T14:18:34.299Z,4.78
2022-08-17T14:21:14.898Z,5.11
2022-08-17T14:23:54.277Z,4.81
2022-08-17T14:26:23.343Z,6.69
2022-08-17T14:28:54.474Z,6.55
2022-08-17T14:31:24.979Z,6.54
2022-08-17T14:33:52.671Z,8.57
2022-08-17T14:36:20.297Z,20.58
2022-08-17T14:38:47.852Z,21.34
2022-08-17T14:41:22.013Z,5.21
2022-08-17T14:43:50.699Z,6.97
2022-08-17T14:46:18.444Z,11.37
2022-08-17T14:48:53.885Z,8.11
2022-08-17T14:51:24.273Z,8.06
2022-08-17T14:53:51.841Z,6.10
2022-08-17T14:56:19.528Z,4.73
2022-08-17T14:58:47.040Z,6.32
2022-08-17T15:01:15.090Z,9.21
2022-08-17T15:03:42.793Z,6.98
2022-08-17T15:06:15.282Z,5.57
2022-08-17T15:08:44.192Z,4.61
2022-08-17T15:11:14.662Z,7.22
2022-08-17T15:13:52.964Z,4.52
2022-08-17T15:16:21.001Z,4.49
2022-08-17T15:18:49.121Z,6.51
2022-08-17T15:21:18.254Z,21.12
2022-08-17T15:23:46.636Z,8.24
2022-08-17T15:26:14.316Z,8.62
2022-08-17T15:28:42.003Z,11.32
2022-08-17T15:31:09.656Z,6.63
2022-08-17T15:33:37.283Z,5.07
2022-08-17T15:36:09.241Z,12.32
2022-08-17T15:38:39.741Z,9.05
2022-08-17T15:41:09.141Z,10.06
2022-08-17T15:43:37.049Z,6.64
2022-08-17T15:46:07.041Z,6.50
2022-08-17T15:48:41.921Z,6.02
2022-08-17T15:51:09.877Z,6.51
2022-08-17T15:53:38.433Z,17.90
2022-08-17T15:56:06.980Z,16.02
2022-08-17T15:58:35.755Z,31.86
2022-08-17T16:01:16.604Z,41.82
2022-08-17T16:04:04.376Z,32.28
2022-08-17T16:06:34.539Z,14.44
2022-08-17T16:09:02.212Z,21.88
2022-08-17T16:11:29.964Z,17.59
2022-08-17T16:13:57.551Z,20.47
2022-08-17T16:16:26.111Z,16.59
2022-08-17T16:18:56.994Z,21.08
2022-08-17T16:21:27.265Z,22.27
2022-08-17T16:24:02.718Z,31.02
2022-08-17T16:26:31.178Z,20.26
2022-08-17T16:29:00.098Z,16.52
2022-08-17T16:31:30.353Z,13.01
2022-08-17T16:34:16.210Z,8.01
2022-08-17T16:36:55.166Z,11.04
2022-08-17T16:39:24.839Z,9.34
2022-08-17T16:41:52.478Z,32.45
2022-08-17T16:44:21.356Z,39.71
2022-08-17T16:46:50.431Z,30.17
2022-08-17T16:49:35.233Z,24.27
2022-08-17T16:52:10.679Z,26.33
2022-08-17T16:54:41.377Z,17.51
2022-08-17T16:57:13.758Z,16.59
2022-08-17T16:59:43.929Z,34.37
2022-08-17T17:02:15.973Z,33.48
2022-08-17T17:04:52.178Z,25.26
2022-08-17T17:07:38.050Z,22.99
2022-08-17T17:10:11.234Z,31.94
2022-08-17T17:13:02.640Z,22.28
2022-08-17T17:15:41.455Z,20.86
2022-08-17T17:18:12.861Z,15.01
2022-08-17T17:20:47.757Z,12.21
2022-08-17T17:23:26.610Z,9.47
2022-08-17T17:26:02.914Z,11.19
2022-08-17T17:28:38.357Z,20.11
2022-08-17T17:31:11.854Z,14.70
2022-08-17T17:33:40.434Z,10.07
2022-08-17T17:36:17.209Z,7.26
2022-08-17T17:38:49.039Z,11.41
2022-08-17T17:41:26.285Z,11.19
2022-08-17T17:44:01.795Z,7.43
2022-08-17T17:46:35.273Z,6.01
2022-08-17T17:49:02.896Z,5.13
2022-08-17T17:52:06.859Z,4.47
2022-08-17T17:54:29.467Z,4.54
2022-08-17T17:57:08.354Z,17.03
2022-08-17T17:59:47.164Z,44.04
2022-08-17T18:02:37.774Z,26.07
2022-08-17T18:05:17.574Z,8.11
2022-08-17T18:07:54.336Z,6.58
2022-08-17T18:10:31.745Z,7.26
2022-08-17T18:13:19.361Z,7.15
2022-08-17T18:15:51.964Z,6.31
2022-08-17T18:18:57.736Z,5.12
2022-08-17T18:21:37.817Z,5.04
2022-08-17T18:24:07.459Z,5.46
2022-08-17T18:26:45.057Z,6.15
2022-08-17T18:29:23.586Z,5.68
2022-08-17T18:32:10.027Z,6.00
2022-08-17T18:34:47.182Z,6.44
2022-08-17T18:37:29.932Z,5.87
2022-08-17T18:39:57.643Z,5.83
2022-08-17T18:42:27.877Z,6.75
2022-08-17T18:44:56.240Z,9.93
2022-08-17T18:47:26.587Z,24.28
2022-08-17T18:49:57.500Z,19.46
2022-08-17T18:52:28.006Z,9.84
2022-08-17T18:55:01.700Z,7.01
2022-08-17T18:57:35.336Z,6.45
2022-08-17T19:00:10.419Z,6.74
2022-08-17T19:03:00.710Z,11.05
2022-08-17T19:05:39.357Z,12.27
2022-08-17T19:08:19.179Z,22.69
2022-08-17T19:10:49.787Z,16.01
2022-08-17T19:13:24.972Z,8.27
2022-08-17T19:16:12.338Z,6.48
2022-08-17T19:18:59.218Z,6.39
2022-08-17T19:21:32.831Z,6.78
2022-08-17T19:24:07.247Z,8.00
2022-08-17T19:26:54.533Z,7.37
2022-08-17T19:29:23.834Z,6.89
2022-08-17T19:31:55.421Z,6.83
2022-08-17T19:34:30.203Z,6.51
2022-08-17T19:37:13.733Z,6.32
2022-08-17T19:39:47.129Z,6.75
2022-08-17T19:42:17.548Z,6.47
2022-08-17T19:45:08.604Z,6.24
2022-08-17T19:47:54.916Z,6.44
2022-08-17T19:50:38.526Z,6.22
2022-08-17T19:53:10.437Z,6.35
2022-08-17T19:55:43.549Z,6.38
2022-08-17T19:58:22.146Z,6.10
2022-08-17T20:00:52.652Z,6.01
2022-08-17T20:03:26.456Z,6.01
2022-08-17T20:06:12.503Z,5.73
2022-08-17T20:08:57.180Z,5.86
2022-08-17T20:11:41.206Z,6.29
2022-08-17T20:14:11.635Z,6.11
2022-08-17T20:16:39.361Z,6.31
2022-08-17T20:19:10.045Z,6.47
2022-08-17T20:21:43.738Z,12.21
2022-08-17T20:24:11.321Z,11.14
2022-08-17T20:26:58.349Z,9.33
2022-08-17T20:29:40.033Z,8.76
2022-08-17T20:32:15.761Z,6.93
2022-08-17T20:34:46.715Z,6.26
2022-08-17T20:37:17.227Z,5.78
2022-08-17T20:39:44.926Z,6.30
2022-08-17T20:42:15.346Z,6.34
2022-08-17T20:44:43.204Z,6.25
2022-08-17T20:48:07.469Z,6.43
2022-08-17T20:50:43.563Z,6.46
2022-08-17T20:53:15.459Z,6.31
2022-08-17T20:55:51.778Z,6.27
2022-08-17T20:58:29.992Z,6.28
2022-08-17T21:00:59.001Z,6.14
2022-08-17T21:03:40.004Z,6.38
2022-08-17T21:06:19.929Z,6.28
2022-08-17T21:08:53.913Z,7.16
2022-08-17T21:12:03.274Z,7.25
2022-08-17T21:14:47.650Z,6.64
2022-08-17T21:17:29.505Z,6.29
2022-08-17T21:20:12.861Z,6.59
2022-08-17T21:22:46.295Z,6.55
2022-08-17T21:25:32.570Z,6.37
2022-08-17T21:28:00.167Z,6.16
2022-08-17T21:30:27.772Z,5.84
2022-08-17T21:33:16.746Z,6.49
2022-08-17T21:35:47.361Z,6.70
2022-08-17T21:38:19.371Z,6.73
2022-08-17T21:40:50.058Z,6.51
2022-08-17T21:43:18.493Z,6.48
2022-08-17T21:45:54.766Z,6.36
2022-08-17T21:48:24.588Z,6.64
2022-08-17T21:50:58.063Z,6.14
2022-08-17T21:53:33.315Z,6.51
2022-08-17T21:56:01.206Z,6.47
2022-08-17T21:58:33.827Z,6.52
2022-08-17T22:01:10.557Z,6.47
2022-08-17T22:03:38.740Z,6.52
2022-08-17T22:06:24.215Z,6.60
2022-08-17T22:09:06.871Z,6.54
2022-08-17T22:11:48.379Z,6.43
2022-08-17T22:14:17.613Z,6.29
2022-08-17T22:16:45.164Z,6.39
2022-08-17T22:19:13.173Z,6.61
2022-08-17T22:21:40.838Z,6.23
2022-08-17T22:24:18.005Z,6.39
2022-08-17T22:27:03.543Z,5.99
2022-08-17T22:30:00.365Z,6.27
2022-08-17T22:32:42.962Z,6.33
2022-08-17T22:35:29.019Z,6.13
2022-08-17T22:37:57.734Z,6.26
2022-08-17T22:40:29.417Z,6.27
2022-08-17T22:42:58.735Z,6.38
2022-08-17T22:45:30.474Z,6.39
2022-08-17T22:48:00.941Z,6.35
2022-08-17T22:50:31.567Z,6.06
2022-08-17T22:53:23.140Z,5.93
2022-08-17T22:56:11.693Z,6.03
2022-08-17T22:59:02.707Z,6.13
2022-08-17T23:01:32.614Z,6.36
2022-08-17T23:04:11.618Z,6.49
2022-08-17T23:06:42.555Z,6.61
2022-08-17T23:09:10.204Z,6.78
2022-08-17T23:11:48.582Z,7.05
2022-08-17T23:14:19.807Z,6.86
2022-08-17T23:17:13.318Z,7.23
2022-08-17T23:20:06.079Z,7.16
2022-08-17T23:22:59.402Z,7.32
2022-08-17T23:25:54.184Z,7.24
2022-08-17T23:28:47.434Z,7.12
2022-08-17T23:31:44.361Z,6.70
2022-08-17T23:34:39.490Z,6.66
2022-08-17T23:37:08.752Z,6.70
2022-08-17T23:39:37.624Z,6.77
2022-08-17T23:42:10.925Z,6.36
2022-08-17T23:44:39.273Z,6.48
2022-08-17T23:47:07.811Z,6.97
2022-08-17T23:49:40.396Z,7.02
2022-08-17T23:52:12.494Z,7.22
2022-08-17T23:54:46.632Z,7.37
2022-08-17T23:57:16.148Z,8.06
2022-08-17T23:59:44.424Z,8.14
